Time;durP1;ratioP1;P1;durP2;ratioP2;P2;SDS_P1;SDS_P2;PMS_P1;PMS_P2;Temp;Humidity;BMP_temperature;BMP_pressure;BME280_temperature;BME280_humidity;BME280_pressure;Samples;Min_cycle;Max_cycle;Signal;HPM_P1;HPM_P2
2022/11/22 00:01:27;;;;;;;3.05;1.88;;;;;;;8.54;62.92;97979.69;5094614;28;20048;-61
2022/11/22 00:03:56;;;;;;;3.90;1.60;;;;;;;8.64;61.96;97980.28;5095486;28;20071;-61
2022/11/22 00:06:23;;;;;;;3.08;1.40;;;;;;;8.62;61.89;97979.84;5095422;28;20048;-61
2022/11/22 00:08:50;;;;;;;4.18;1.80;;;;;;;8.61;62.14;97981.84;5110418;28;20075;-61
2022/11/22 00:11:18;;;;;;;2.83;1.40;;;;;;;8.54;63.35;97974.13;5115776;28;20074;-61
2022/11/22 00:13:45;;;;;;;3.05;1.45;;;;;;;8.54;63.38;97968.59;5104124;27;20067;-61
2022/11/22 00:16:14;;;;;;;3.47;1.63;;;;;;;8.46;63.13;97975.16;5095819;28;20056;-60
2022/11/22 00:18:41;;;;;;;2.58;1.27;;;;;;;8.56;63.45;97976.53;5094957;28;20048;-61
2022/11/22 00:21:10;;;;;;;3.05;1.60;;;;;;;8.39;62.60;97976.94;5095700;28;20056;-61
2022/11/22 00:23:37;;;;;;;2.95;1.70;;;;;;;8.41;62.58;97974.63;5095164;28;20087;-61
2022/11/22 00:26:05;;;;;;;3.47;1.35;;;;;;;8.38;63.20;97967.81;5094950;28;20051;-61
2022/11/22 00:28:33;;;;;;;2.75;1.33;;;;;;;8.38;63.15;97965.03;5096074;27;20059;-60
2022/11/22 00:31:00;;;;;;;2.70;1.50;;;;;;;8.49;62.69;97949.44;5094607;28;20063;-62
2022/11/22 00:33:27;;;;;;;2.67;1.25;;;;;;;8.30;64.10;97939.09;5095121;28;20404;-60
2022/11/22 00:36:01;;;;;;;2.38;1.20;;;;;;;8.25;64.33;97938.56;5095277;28;20377;-66
2022/11/22 00:38:30;;;;;;;3.17;1.33;;;;;;;8.28;65.07;97935.09;5095142;28;20059;-61
2022/11/22 00:40:57;;;;;;;1.77;1.05;;;;;;;8.38;63.99;97936.47;5095125;28;20052;-62
2022/11/22 00:43:25;;;;;;;1.92;1.30;;;;;;;8.34;64.38;97939.97;5109263;28;20488;-61
2022/11/22 00:45:52;;;;;;;4.43;1.27;;;;;;;8.37;64.08;97924.59;5115187;28;20052;-61
2022/11/22 00:48:19;;;;;;;2.50;1.08;;;;;;;8.45;63.89;97931.13;5115106;28;20051;-61
2022/11/22 00:50:49;;;;;;;1.55;0.90;;;;;;;8.50;64.04;97933.59;5113384;28;20044;-61
2022/11/22 00:53:16;;;;;;;3.05;1.15;;;;;;;8.54;64.35;97940.03;5115404;28;20401;-61
2022/11/22 00:55:46;;;;;;;2.40;1.42;;;;;;;8.49;64.84;97918.16;5114973;28;20056;-61
2022/11/22 00:58:13;;;;;;;;;;;;;;;8.49;63.89;97907.84;5095919;28;20059;-61
2022/11/22 01:00:40;;;;;;;2.72;1.40;;;;;;;8.44;63.28;97930.34;5095122;28;20280;-61
2022/11/22 01:03:11;;;;;;;1.73;1.05;;;;;;;8.40;64.02;97936.91;5094597;28;20056;-61
2022/11/22 01:05:42;;;;;;;1.85;1.20;;;;;;;8.50;64.19;97944.69;5093830;28;20499;-61
2022/11/22 01:08:12;;;;;;;2.42;1.33;;;;;;;8.54;64.30;97917.84;5104142;28;20052;-61
2022/11/22 01:10:41;;;;;;;2.17;1.00;;;;;;;8.51;64.95;97936.03;5113962;28;20063;-61
2022/11/22 01:13:11;;;;;;;2.10;1.48;;;;;;;8.41;64.53;97942.13;5113022;28;20522;-61
2022/11/22 01:15:42;;;;;;;1.70;1.20;;;;;;;8.47;64.82;97939.91;5114924;28;20052;-61
2022/11/22 01:18:09;;;;;;;3.28;1.45;;;;;;;8.45;65.69;97937.47;5114719;28;20056;-61
2022/11/22 01:20:36;;;;;;;2.83;1.38;;;;;;;8.48;65.21;97920.13;5114842;28;20054;-61
2022/11/22 01:23:04;;;;;;;2.05;1.20;;;;;;;8.47;64.60;97934.34;5114346;28;20051;-61
2022/11/22 01:25:31;;;;;;;1.92;1.35;;;;;;;8.56;65.42;97918.28;5112695;27;20043;-61
2022/11/22 01:28:00;;;;;;;3.22;1.42;;;;;;;8.68;64.40;97925.69;5114507;28;20059;-61
2022/11/22 01:30:29;;;;;;;2.28;1.25;;;;;;;8.67;65.09;97924.06;5108029;28;20048;-62
2022/11/22 01:32:56;;;;;;;2.72;1.55;;;;;;;8.77;63.67;97936.56;5093651;28;20063;-62
2022/11/22 01:35:23;;;;;;;2.50;1.30;;;;;;;8.76;65.15;97941.31;5093875;28;20055;-61
2022/11/22 01:37:51;;;;;;;3.42;1.50;;;;;;;8.77;63.98;97951.22;5093916;28;20055;-61
2022/11/22 01:40:18;;;;;;;2.95;1.40;;;;;;;8.85;64.84;97955.78;5093673;27;20051;-62
2022/11/22 01:42:48;;;;;;;2.38;1.33;;;;;;;8.95;64.80;97948.84;5093497;28;20055;-60
2022/11/22 01:45:42;;;;;;;3.28;1.48;;;;;;;9.00;63.89;97940.19;5093952;28;20048;-61
2022/11/22 01:48:19;;;;;;;3.10;1.40;;;;;;;9.09;64.20;97935.25;5093177;28;20052;-61
2022/11/22 01:50:50;;;;;;;3.40;1.75;;;;;;;9.04;65.07;97943.06;5102998;28;20491;-61
2022/11/22 01:53:22;;;;;;;2.92;1.77;;;;;;;9.08;64.31;97939.16;5114152;28;20052;-61
2022/11/22 01:55:53;;;;;;;3.47;1.70;;;;;;;9.01;64.99;97941.81;5113906;28;20051;-61
2022/11/22 01:58:23;;;;;;;2.72;1.35;;;;;;;8.94;64.71;97950.81;5113901;28;20415;-61
2022/11/22 02:00:53;;;;;;;2.65;1.60;;;;;;;8.84;65.40;97954.19;5113786;28;20044;-61
2022/11/22 02:03:22;;;;;;;4.60;1.80;;;;;;;8.78;66.02;97954.81;5113615;28;20071;-61
2022/11/22 02:05:53;;;;;;;6.57;1.70;;;;;;;8.71;68.07;97966.56;5110506;27;20055;-61
2022/11/22 02:08:27;;;;;;;3.83;1.50;;;;;;;8.60;69.52;97966.34;5113815;28;20047;-61
2022/11/22 02:10:56;;;;;;;4.15;1.80;;;;;;;8.72;70.51;97968.19;5113511;28;20052;-61
2022/11/22 02:13:24;;;;;;;3.60;1.77;;;;;;;8.62;70.42;97963.22;5112145;28;20058;-61
2022/11/22 02:15:57;;;;;;;3.30;1.50;;;;;;;8.57;70.33;97967.06;5092575;28;20386;-61
2022/11/22 02:18:28;;;;;;;2.90;1.73;;;;;;;8.52;70.01;97972.88;5093620;28;20063;-61
2022/11/22 02:20:55;;;;;;;3.22;1.63;;;;;;;8.51;69.86;97969.31;5091488;28;20048;-62
2022/11/22 02:23:30;;;;;;;4.05;2.00;;;;;;;8.52;70.18;97970.94;5093058;28;20052;-61
2022/11/22 02:26:02;;;;;;;4.60;1.70;;;;;;;8.46;69.87;97972.38;5092968;28;20052;-61
2022/11/22 02:28:32;;;;;;;4.15;1.60;;;;;;;8.45;70.17;97975.50;5092598;28;20055;-62
2022/11/22 02:31:01;;;;;;;4.45;1.70;;;;;;;8.47;70.01;97979.53;5092989;28;20071;-62
2022/11/22 02:33:29;;;;;;;3.45;1.52;;;;;;;8.38;69.71;97965.03;5092665;28;20603;-62
2022/11/22 02:35:56;;;;;;;3.10;1.50;;;;;;;8.47;69.85;97973.97;5091110;28;20048;-61
2022/11/22 02:38:26;;;;;;;5.95;1.77;;;;;;;8.35;69.32;97976.84;5092561;28;20066;-62
2022/11/22 02:40:56;;;;;;;4.00;1.98;;;;;;;8.34;69.86;97980.78;5092650;28;20052;-62
2022/11/22 02:43:26;;;;;;;;;;;;;;;8.44;70.57;97985.00;5093335;28;20100;-62
2022/11/22 02:45:54;;;;;;;2.88;1.70;;;;;;;8.41;69.27;97992.06;5092720;28;19931;-61
2022/11/22 02:48:21;;;;;;;4.43;1.75;;;;;;;8.47;69.18;98000.94;5092648;28;20479;-61
2022/11/22 02:50:48;;;;;;;3.25;1.70;;;;;;;8.29;68.83;98006.84;5083728;28;20052;-61
2022/11/22 02:53:15;;;;;;;2.78;1.67;;;;;;;8.50;69.66;98001.00;5087727;28;20059;-61
2022/11/22 02:55:43;;;;;;;5.95;1.80;;;;;;;8.48;70.13;98000.56;5092672;28;20409;-62
2022/11/22 02:58:10;;;;;;;4.47;1.77;;;;;;;8.49;68.81;97993.03;5090481;28;20473;-61
2022/11/22 03:00:39;;;;;;;4.65;1.98;;;;;;;8.52;69.09;97995.91;5077183;28;20488;-61
2022/11/22 03:03:06;;;;;;;5.07;2.40;;;;;;;8.60;69.15;97987.72;5071653;28;20404;-61
2022/11/22 03:05:34;;;;;;;4.30;1.90;;;;;;;8.42;68.69;97996.47;5072327;28;20067;-61
2022/11/22 03:08:01;;;;;;;4.07;1.80;;;;;;;8.57;69.50;98005.91;5100045;28;20047;-61
2022/11/22 03:10:29;;;;;;;4.65;2.13;;;;;;;8.61;69.44;98005.97;5112211;28;20054;-61
2022/11/22 03:12:59;;;;;;;4.00;2.03;;;;;;;8.52;68.48;98001.47;5112619;28;20502;-61
2022/11/22 03:15:26;;;;;;;5.30;2.28;;;;;;;8.60;70.00;98004.38;5111450;28;20051;-62
2022/11/22 03:17:58;;;;;;;5.30;2.20;;;;;;;8.65;70.03;98017.97;5092013;28;20052;-61
2022/11/22 03:20:26;;;;;;;3.65;2.03;;;;;;;8.69;68.14;98014.13;5089956;28;20412;-62
2022/11/22 03:22:53;;;;;;;5.03;2.47;;;;;;;8.59;68.93;98019.41;5091946;28;20059;-60
2022/11/22 03:25:21;;;;;;;4.60;1.88;;;;;;;8.64;69.58;98028.25;5091789;28;20048;-61
2022/11/22 03:27:49;;;;;;;5.60;2.40;;;;;;;8.58;69.57;98017.81;5088215;28;20048;-62
2022/11/22 03:30:16;;;;;;;4.63;1.98;;;;;;;8.66;68.87;98014.03;5071537;28;20072;-62
2022/11/22 03:32:43;;;;;;;4.80;2.22;;;;;;;8.71;68.76;98016.50;5071389;28;20052;-62
2022/11/22 03:35:12;;;;;;;3.55;1.85;;;;;;;8.72;68.85;98027.25;5070582;28;20052;-62
2022/11/22 03:37:39;;;;;;;6.15;2.28;;;;;;;8.60;69.00;98029.34;5071764;28;20056;-61
2022/11/22 03:40:08;;;;;;;4.95;2.20;;;;;;;8.61;68.97;98033.72;5071766;28;20056;-62
2022/11/22 03:42:35;;;;;;;4.13;2.13;;;;;;;8.68;70.02;98045.81;5071587;28;20052;-61
2022/11/22 03:45:03;;;;;;;6.60;2.72;;;;;;;8.67;69.88;98038.66;5073545;28;20052;-62
2022/11/22 03:47:30;;;;;;;5.20;2.30;;;;;;;8.70;68.88;98040.69;5090019;28;20056;-61
2022/11/22 03:49:57;;;;;;;4.68;2.28;;;;;;;8.85;68.06;98050.16;5091601;28;20392;-61
2022/11/22 03:52:26;;;;;;;4.40;2.08;;;;;;;8.84;69.42;98050.50;5092211;28;20062;-59
2022/11/22 03:54:53;;;;;;;5.90;2.08;;;;;;;8.87;69.31;98052.56;5092058;28;20052;-61
2022/11/22 03:57:20;;;;;;;4.50;1.98;;;;;;;8.72;69.09;98043.13;5091776;28;20481;-62
2022/11/22 03:59:47;;;;;;;6.90;2.90;;;;;;;8.79;69.45;98046.03;5091983;28;20052;-61
2022/11/22 04:02:15;;;;;;;5.47;2.35;;;;;;;8.90;68.45;98058.22;5088784;28;20063;-62
2022/11/22 04:04:43;;;;;;;7.20;2.22;;;;;;;8.96;67.74;98066.25;5092006;28;20067;-62
2022/11/22 04:07:10;;;;;;;8.07;2.65;;;;;;;8.89;67.69;98067.69;5092601;28;20408;-61
2022/11/22 04:09:38;;;;;;;6.63;2.78;;;;;;;8.91;68.41;98068.13;5116918;28;20412;-62
2022/11/22 04:12:06;;;;;;;6.88;2.80;;;;;;;9.00;67.56;98065.16;5132406;28;20047;-62
2022/11/22 04:17:39;;;;;;;7.00;2.42;;;;;;;8.89;67.85;98062.13;5095779;28;20060;-61
2022/11/22 04:22:43;;;;;;;5.97;2.13;;;;;;;8.88;67.38;98070.81;5106839;28;20060;-62
2022/11/22 04:25:14;;;;;;;9.80;2.78;;;;;;;8.93;67.53;98076.91;5111875;28;20476;-62
2022/11/22 04:27:41;;;;;;;8.63;2.53;;;;;;;8.98;68.10;98086.13;5111660;28;20051;-61
2022/11/22 04:30:09;;;;;;;5.95;1.90;;;;;;;8.93;68.65;98079.69;5111588;28;20055;-61
2022/11/22 04:32:44;;;;;;;5.10;1.77;;;;;;;8.89;67.18;98084.34;5110129;28;20059;-61
2022/11/22 04:35:13;;;;;;;5.78;1.65;;;;;;;8.90;68.16;98080.41;5111603;28;20052;-61
2022/11/22 04:37:40;;;;;;;5.53;2.15;;;;;;;8.92;67.50;98083.63;5111466;28;20055;-61
2022/11/22 04:40:09;;;;;;;6.43;2.10;;;;;;;8.89;67.38;98086.31;5111636;28;20460;-61
2022/11/22 04:45:24;;;;;;;7.00;1.80;;;;;;;8.82;67.98;98086.97;5087016;28;20059;-61
2022/11/22 04:48:00;;;;;;;6.18;1.88;;;;;;;8.72;66.82;98087.53;5113306;28;20059;-61
2022/11/22 04:53:18;;;;;;;9.27;2.00;;;;;;;8.64;67.85;98094.88;5115342;28;20055;-62
2022/11/22 04:55:47;;;;;;;7.60;2.20;;;;;;;8.63;67.00;98095.22;5115313;28;20404;-62
2022/11/22 04:58:15;;;;;;;7.00;2.37;;;;;;;8.68;67.14;98092.97;5113707;28;20092;-62
2022/11/22 05:00:43;;;;;;;6.35;1.88;;;;;;;8.59;68.08;98099.88;5106705;28;20480;-62
2022/11/22 05:03:11;;;;;;;8.85;1.83;;;;;;;8.67;67.42;98093.34;5094668;28;20407;-62
2022/11/22 05:05:40;;;;;;;8.63;2.00;;;;;;;8.70;67.09;98085.09;5094670;28;20064;-61
2022/11/22 05:08:08;;;;;;;7.22;2.40;;;;;;;8.66;68.32;98083.41;5102725;28;20070;-62
2022/11/22 05:13:20;;;;;;;3.28;1.58;;;;;;;8.61;67.69;98090.06;5113829;28;20128;-61
2022/11/22 05:15:48;;;;;;;6.90;1.60;;;;;;;8.47;68.57;98090.50;5115105;28;20052;-62
2022/11/22 05:18:15;;;;;;;5.78;2.05;;;;;;;8.45;68.08;98087.28;5114324;28;20063;-62
2022/11/22 05:20:42;;;;;;;5.03;1.75;;;;;;;8.42;67.56;98085.22;5113752;28;20067;-61
2022/11/22 05:25:54;;;;;;;5.25;1.70;;;;;;;8.32;67.75;98096.84;5095537;28;20067;-61
2022/11/22 05:28:23;;;;;;;5.32;1.65;;;;;;;8.23;69.25;98090.63;5093859;28;20056;-61
2022/11/22 05:30:50;;;;;;;11.02;2.35;;;;;;;8.24;69.52;98090.28;5097179;28;20055;-61
2022/11/22 05:33:20;;;;;;;8.13;1.70;;;;;;;8.26;68.96;98095.50;5114331;28;20055;-61
2022/11/22 05:35:47;;;;;;;6.70;1.95;;;;;;;8.25;68.31;98099.41;5114456;28;20048;-61
2022/11/22 05:38:14;;;;;;;7.50;2.10;;;;;;;8.20;69.15;98108.00;5101749;28;20056;-61
2022/11/22 05:40:41;;;;;;;6.03;1.73;;;;;;;8.20;68.48;98096.91;5094101;28;20374;-61
2022/11/22 05:43:09;;;;;;;6.78;2.20;;;;;;;8.19;67.88;98103.59;5093225;28;20139;-61
2022/11/22 05:45:37;;;;;;;6.00;1.80;;;;;;;8.09;68.16;98097.44;5106241;28;20056;-62
2022/11/22 05:48:05;;;;;;;5.15;1.60;;;;;;;8.12;68.75;98099.50;5110690;28;20055;-61
2022/11/22 05:50:32;;;;;;;4.38;1.52;;;;;;;8.13;68.70;98101.13;5103361;28;20051;-62
2022/11/22 05:53:01;;;;;;;6.15;2.47;;;;;;;8.11;67.95;98097.88;5093497;28;20055;-62
2022/11/22 05:55:29;;;;;;;6.35;1.92;;;;;;;8.06;69.20;98100.94;5093641;28;20052;-61
2022/11/22 05:57:59;;;;;;;8.00;2.20;;;;;;;8.03;69.28;98109.94;5092824;28;20081;-61
2022/11/22 06:00:26;;;;;;;;;;;;;;;7.97;69.43;98111.38;5110826;28;20082;-61
2022/11/22 06:02:59;;;;;;;5.15;1.50;;;;;;;7.93;69.73;98110.47;5113608;28;20292;-60
2022/11/22 06:05:27;;;;;;;6.47;2.10;;;;;;;7.88;69.87;98119.06;5098184;28;20052;-62
2022/11/22 06:07:57;;;;;;;11.95;2.67;;;;;;;7.89;69.71;98129.75;5108658;28;20070;-61
2022/11/22 06:10:24;;;;;;;5.25;2.10;;;;;;;7.83;70.35;98122.06;5107811;28;20075;-62
2022/11/22 06:12:52;;;;;;;9.25;1.77;;;;;;;7.81;69.61;98129.94;5093171;28;20059;-62
2022/11/22 06:15:19;;;;;;;10.05;2.75;;;;;;;7.79;70.07;98135.00;5093105;28;20051;-61
2022/11/22 06:17:47;;;;;;;5.60;1.58;;;;;;;7.70;70.11;98141.50;5107154;27;20047;-62
2022/11/22 06:20:16;;;;;;;5.78;1.70;;;;;;;7.76;68.91;98158.69;5104129;28;20043;-61
2022/11/22 06:22:43;;;;;;;5.97;2.10;;;;;;;7.59;69.95;98145.16;5091272;27;20044;-62
2022/11/22 06:25:11;;;;;;;6.38;1.90;;;;;;;7.56;69.96;98149.44;5095375;28;20059;-62
2022/11/22 06:27:38;;;;;;;6.07;1.70;;;;;;;7.54;70.53;98149.00;5095645;28;20047;-62
2022/11/22 06:30:07;;;;;;;5.50;2.10;;;;;;;7.56;69.15;98146.66;5113150;28;20056;-61
2022/11/22 06:32:35;;;;;;;7.13;2.20;;;;;;;7.61;69.61;98137.31;5108070;28;20048;-62
2022/11/22 06:35:03;;;;;;;6.68;1.73;;;;;;;7.50;69.44;98156.38;5092790;28;20051;-61
2022/11/22 06:37:31;;;;;;;7.85;2.42;;;;;;;7.51;69.33;98157.97;5092014;28;20058;-61
2022/11/22 06:39:59;;;;;;;9.30;2.08;;;;;;;7.49;69.14;98169.41;5099425;28;20125;-62
2022/11/22 06:42:26;;;;;;;5.25;2.10;;;;;;;7.49;69.43;98161.09;5112511;28;20437;-62
2022/11/22 06:44:53;;;;;;;8.82;2.25;;;;;;;7.56;69.19;98170.78;5112407;28;20369;-61
2022/11/22 06:47:20;;;;;;;8.82;2.58;;;;;;;7.53;69.89;98166.75;5112630;28;20487;-62
2022/11/22 06:49:48;;;;;;;6.90;2.15;;;;;;;7.54;68.65;98160.06;5113021;28;20063;-62
2022/11/22 06:52:15;;;;;;;5.65;2.10;;;;;;;7.47;69.31;98160.63;5112356;28;20488;-60
2022/11/22 06:54:43;;;;;;;9.02;2.42;;;;;;;7.38;69.04;98173.84;5098542;28;20048;-62
2022/11/22 06:57:13;;;;;;;10.32;2.22;;;;;;;7.46;69.71;98169.31;5101928;28;20047;-61
2022/11/22 06:59:40;;;;;;;7.85;2.00;;;;;;;7.39;68.97;98169.91;5097350;27;20475;-61
2022/11/22 07:02:11;;;;;;;7.57;1.83;;;;;;;7.45;68.97;98176.81;5090279;28;20051;-61
2022/11/22 07:04:39;;;;;;;6.70;1.98;;;;;;;7.48;68.29;98173.34;5092056;28;20048;-61
2022/11/22 07:07:06;;;;;;;4.93;1.85;;;;;;;7.31;68.84;98168.09;5103160;28;20059;-61
2022/11/22 07:09:34;;;;;;;7.47;2.08;;;;;;;7.42;69.22;98182.25;5093819;28;20047;-62
2022/11/22 07:12:03;;;;;;;5.03;1.73;;;;;;;7.42;68.28;98185.03;5095541;28;20055;-61
2022/11/22 07:14:31;;;;;;;9.27;2.00;;;;;;;7.46;68.23;98194.25;5101657;28;20062;-62
2022/11/22 07:16:58;;;;;;;10.57;2.45;;;;;;;7.29;68.93;98203.63;5111996;28;20052;-61
2022/11/22 07:19:28;;;;;;;9.43;1.90;;;;;;;7.52;67.02;98206.69;5107960;28;20066;-61
2022/11/22 07:21:55;;;;;;;8.30;2.53;;;;;;;7.46;67.40;98202.56;5094797;28;20055;-62
2022/11/22 07:24:22;;;;;;;8.05;2.65;;;;;;;7.56;68.08;98209.56;5107006;28;20055;-61
2022/11/22 07:26:49;;;;;;;7.47;2.20;;;;;;;7.47;67.07;98202.19;5103496;28;20051;-60
2022/11/22 07:29:18;;;;;;;8.77;2.30;;;;;;;7.51;67.03;98199.53;5098416;28;20051;-60
2022/11/22 07:31:46;;;;;;;8.68;2.30;;;;;;;7.57;67.07;98203.69;5095307;28;20362;-61
2022/11/22 07:34:13;;;;;;;14.82;2.38;;;;;;;7.53;65.49;98192.47;5100358;28;20054;-61
2022/11/22 07:36:40;;;;;;;7.22;2.30;;;;;;;7.66;66.45;98206.31;5093507;28;20056;-61
2022/11/22 07:39:08;;;;;;;5.88;2.20;;;;;;;7.73;64.72;98207.31;5091235;28;20051;-60
2022/11/22 07:41:35;;;;;;;9.05;2.47;;;;;;;7.65;64.80;98213.81;5091490;28;20056;-61
2022/11/22 07:44:02;;;;;;;4.07;1.98;;;;;;;7.71;64.47;98209.66;5091601;28;20052;-61
2022/11/22 07:46:32;;;;;;;9.93;2.33;;;;;;;7.75;65.78;98208.94;5091659;28;20048;-61
2022/11/22 07:49:01;;;;;;;10.25;2.45;;;;;;;7.82;64.06;98214.69;5091349;28;20074;-61
2022/11/22 07:51:29;;;;;;;7.68;2.65;;;;;;;8.02;65.11;98208.16;5091270;28;20059;-62
2022/11/22 07:53:57;;;;;;;12.02;2.97;;;;;;;8.47;66.29;98198.69;5091183;28;20156;-60
2022/11/22 07:56:24;;;;;;;7.97;1.85;;;;;;;9.06;61.96;98210.88;5091412;28;20504;-60
2022/11/22 07:58:51;;;;;;;8.32;2.58;;;;;;;9.76;60.11;98203.69;5090559;28;20052;-59
2022/11/22 08:01:20;;;;;;;8.27;2.60;;;;;;;10.50;57.91;98200.03;5096080;28;20051;-60
2022/11/22 08:03:48;;;;;;;8.75;2.22;;;;;;;11.58;54.93;98188.59;5111557;28;20056;-60
2022/11/22 08:06:16;;;;;;;5.60;1.98;;;;;;;11.97;52.10;98191.16;5111357;28;20047;-61
2022/11/22 08:08:44;;;;;;;7.63;2.10;;;;;;;11.29;53.48;98188.19;5111442;28;20093;-60
2022/11/22 08:11:12;;;;;;;12.40;6.25;;;;;;;11.25;53.17;98187.31;5110862;28;20412;-60
2022/11/22 08:13:40;;;;;;;5.72;2.13;;;;;;;12.55;49.97;98179.41;5109642;28;20052;-59
2022/11/22 08:16:09;;;;;;;5.90;4.22;;;;;;;12.65;49.99;98182.69;5111550;28;20055;-60
2022/11/22 08:18:38;;;;;;;5.32;2.08;;;;;;;12.43;50.18;98192.84;5111212;28;20058;-65
2022/11/22 08:21:08;;;;;;;6.90;2.60;;;;;;;13.12;48.45;98189.47;5112403;28;20055;-66
2022/11/22 08:23:36;;;;;;;18.23;16.98;;;;;;;13.49;47.08;98208.16;5115381;28;20051;-65
2022/11/22 08:26:04;;;;;;;6.40;1.88;;;;;;;13.45;47.10;98210.13;5115220;28;20047;-63
2022/11/22 08:28:33;;;;;;;7.43;2.00;;;;;;;12.71;48.02;98195.13;5113505;28;20477;-64
2022/11/22 08:31:03;;;;;;;6.65;1.73;;;;;;;12.81;48.02;98208.41;5115872;28;20051;-64
2022/11/22 08:33:30;;;;;;;5.90;2.15;;;;;;;12.15;48.60;98203.31;5115018;28;20491;-64
2022/11/22 08:35:57;;;;;;;4.95;1.58;;;;;;;12.25;49.30;98203.81;5104571;28;20048;-64
2022/11/22 08:38:26;;;;;;;6.95;5.53;;;;;;;12.37;48.56;98197.97;5096224;28;20051;-64
2022/11/22 08:40:54;;;;;;;3.92;1.75;;;;;;;13.07;47.30;98212.19;5095187;28;20064;-64
2022/11/22 08:43:21;;;;;;;12.80;11.52;;;;;;;13.74;45.88;98208.31;5094534;28;20051;-63
2022/11/22 08:45:53;;;;;;;7.72;3.15;;;;;;;14.74;43.73;98210.66;5094876;28;20056;-64
2022/11/22 08:48:20;;;;;;;5.03;1.83;;;;;;;15.38;41.47;98199.47;5094061;28;20056;-63
2022/11/22 08:50:50;;;;;;;3.85;1.63;;;;;;;16.31;41.01;98195.59;5094752;28;20064;-63
2022/11/22 08:53:17;;;;;;;5.32;1.65;;;;;;;16.56;39.41;98211.53;5093983;28;20040;-68
2022/11/22 08:55:47;;;;;;;13.68;2.15;;;;;;;16.84;39.97;98202.16;5114220;28;20054;-61
2022/11/22 08:58:14;;;;;;;6.40;1.80;;;;;;;16.41;47.58;98208.00;5114402;28;20059;-62
2022/11/22 09:00:41;;;;;;;4.15;1.90;;;;;;;18.59;37.22;98210.03;5114354;28;20055;-62
2022/11/22 09:03:09;;;;;;;6.10;2.03;;;;;;;18.86;36.43;98208.03;5114810;28;20043;-62
2022/11/22 09:05:37;;;;;;;5.82;1.92;;;;;;;17.80;35.84;98245.53;5114835;28;20058;-62
2022/11/22 09:08:04;;;;;;;5.50;2.25;;;;;;;18.94;35.29;98233.31;5110151;27;20047;-65
2022/11/22 09:10:31;;;;;;;5.72;1.80;;;;;;;18.90;35.48;98233.38;5114181;28;20662;-62
2022/11/22 09:13:00;;;;;;;3.90;1.60;;;;;;;18.93;34.06;98238.16;5114734;28;20051;-63
2022/11/22 09:15:27;;;;;;;6.37;2.03;;;;;;;18.41;35.51;98241.25;5114114;28;20051;-62
2022/11/22 09:18:01;;;;;;;5.18;1.77;;;;;;;19.29;34.00;98248.88;5114465;28;20051;-63
2022/11/22 09:20:28;;;;;;;4.35;1.70;;;;;;;18.53;34.62;98243.53;5114247;28;20055;-62
2022/11/22 09:22:55;;;;;;;8.00;2.30;;;;;;;19.54;32.95;98253.31;5112742;28;20484;-62
2022/11/22 09:25:22;;;;;;;5.38;1.88;;;;;;;19.86;33.18;98241.47;5114253;28;20047;-62
2022/11/22 09:27:50;;;;;;;4.93;1.70;;;;;;;19.78;31.78;98249.31;5113777;28;20047;-60
2022/11/22 09:30:20;;;;;;;3.38;1.77;;;;;;;21.20;31.07;98240.28;5097229;27;20051;-64
2022/11/22 09:32:47;;;;;;;3.83;1.60;;;;;;;20.07;31.81;98245.91;5113126;28;20051;-63
2022/11/22 09:35:16;;;;;;;3.90;1.60;;;;;;;18.92;32.93;98241.41;5114207;28;20059;-62
2022/11/22 09:37:43;;;;;;;4.63;2.00;;;;;;;20.47;31.05;98238.25;5112782;28;20494;-63
2022/11/22 09:40:11;;;;;;;4.70;2.10;;;;;;;20.53;29.94;98241.34;5113846;28;20055;-63
2022/11/22 09:43:02;;;;;;;5.38;1.90;;;;;;;20.48;30.51;98239.06;5113776;28;20066;-63
2022/11/22 09:45:54;;;;;;;5.20;1.50;;;;;;;21.60;29.92;98231.66;5114321;28;20391;-62
2022/11/22 09:48:43;;;;;;;4.97;1.70;;;;;;;19.39;32.39;98236.63;5113669;28;20055;-62
2022/11/22 09:51:15;;;;;;;4.38;1.77;;;;;;;18.11;34.38;98237.19;5107910;28;20048;-62
2022/11/22 09:53:48;;;;;;;6.18;1.90;;;;;;;16.79;36.20;98225.84;5092800;28;20044;-62
2022/11/22 09:56:16;;;;;;;6.40;2.05;;;;;;;14.89;39.18;98259.97;5093604;28;20055;-61
2022/11/22 09:58:47;;;;;;;5.60;2.10;;;;;;;14.30;41.56;98237.75;5093693;28;20059;-62
2022/11/22 10:01:21;;;;;;;5.05;2.00;;;;;;;13.63;41.33;98244.59;5093412;28;20047;-61
2022/11/22 10:03:54;;;;;;;8.00;1.88;;;;;;;12.60;45.25;98250.88;5092978;28;20047;-62
2022/11/22 10:06:28;;;;;;;6.50;1.88;;;;;;;12.29;46.37;98238.16;5092662;28;20047;-60
2022/11/22 10:09:06;;;;;;;10.15;2.15;;;;;;;13.67;43.71;98265.00;5109176;28;20055;-60
2022/11/22 10:11:40;;;;;;;7.03;2.00;;;;;;;15.18;40.64;98231.94;5092468;28;20050;-60
2022/11/22 10:14:22;;;;;;;5.15;1.83;;;;;;;17.43;36.79;98226.59;5093040;28;20048;-61
2022/11/22 10:16:57;;;;;;;5.45;2.28;;;;;;;17.89;35.44;98219.75;5092861;28;20402;-60
2022/11/22 10:19:34;;;;;;;6.35;2.45;;;;;;;19.00;33.58;98232.44;5092882;28;20480;-61
2022/11/22 10:22:02;;;;;;;5.43;2.13;;;;;;;18.78;33.78;98242.38;5091881;28;20058;-61
2022/11/22 10:24:29;;;;;;;6.13;2.03;;;;;;;18.59;33.57;98238.22;5092641;28;20515;-61
2022/11/22 10:26:59;;;;;;;5.30;2.30;;;;;;;17.78;34.64;98236.69;5092930;28;20048;-62
2022/11/22 10:29:35;;;;;;;4.85;1.75;;;;;;;18.50;34.00;98227.47;5091447;28;20055;-61
2022/11/22 10:32:12;;;;;;;4.57;2.40;;;;;;;20.08;31.93;98230.56;5092835;28;20055;-61
2022/11/22 10:34:54;;;;;;;5.45;2.03;;;;;;;20.66;30.54;98219.69;5087614;28;20428;-62
2022/11/22 10:37:33;;;;;;;4.93;3.22;;;;;;;19.16;33.01;98240.22;5072101;28;20048;-61
2022/11/22 10:40:09;;;;;;;5.60;2.30;;;;;;;17.25;35.59;98219.09;5075667;28;20048;-61
2022/11/22 10:43:12;;;;;;;5.68;4.30;;;;;;;16.67;36.95;98217.09;5092029;28;20055;-61
2022/11/22 10:45:44;;;;;;;6.75;1.95;;;;;;;14.02;41.08;98224.41;5092616;28;20055;-60
2022/11/22 10:48:24;;;;;;;8.15;2.47;;;;;;;13.39;42.95;98227.25;5092402;28;20051;-61
2022/11/22 10:50:59;;;;;;;6.22;1.83;;;;;;;13.22;44.30;98260.63;5076487;28;20056;-60
2022/11/22 10:53:40;;;;;;;4.35;1.65;;;;;;;12.77;45.50;98236.28;5091523;28;20102;-60
2022/11/22 10:56:16;;;;;;;6.88;1.77;;;;;;;11.97;47.35;98227.41;5092349;28;20138;-59
2022/11/22 10:58:58;;;;;;;7.45;1.63;;;;;;;11.90;47.04;98219.72;5091589;28;20052;-59
2022/11/22 11:01:33;;;;;;;7.15;1.63;;;;;;;11.54;48.63;98226.78;5072533;28;20048;-60
2022/11/22 11:04:04;;;;;;;9.68;2.42;;;;;;;10.87;49.96;98238.47;5071787;28;20048;-60
2022/11/22 11:06:36;;;;;;;5.40;1.88;;;;;;;10.75;50.12;98225.50;5072102;28;20052;-60
2022/11/22 11:09:12;;;;;;;7.28;2.03;;;;;;;10.59;50.98;98230.41;5060026;28;20056;-60
2022/11/22 11:11:42;;;;;;;5.90;1.63;;;;;;;10.13;51.93;98222.75;5088726;28;20090;-63
2022/11/22 11:14:24;;;;;;;8.75;2.38;;;;;;;10.59;50.97;98213.72;5096663;28;20039;-60
2022/11/22 11:16:52;;;;;;;4.05;2.05;;;;;;;10.86;50.47;98225.72;5112195;28;20055;-60
2022/11/22 11:19:24;;;;;;;3.10;2.80;;;;;;;11.85;48.90;98224.81;5112146;28;20055;-59
2022/11/22 11:21:59;;;;;;;3.55;1.48;;;;;;;11.53;48.28;98214.84;5112007;28;20051;-60
2022/11/22 11:24:29;;;;;;;3.08;1.73;;;;;;;11.69;48.60;98206.28;5084702;28;20049;-60
2022/11/22 11:26:59;;;;;;;1999.90;999.90;;;;;;;14.07;42.79;98186.84;5091201;28;20412;-60
2022/11/22 11:29:38;;;;;;;1999.90;999.90;;;;;;;16.28;38.81;98175.97;5084959;28;20083;-60
2022/11/22 11:32:12;;;;;;;1999.90;999.90;;;;;;;17.72;35.15;98184.88;5083973;28;20143;-60
2022/11/22 11:34:47;;;;;;;1502.88;752.75;;;;;;;17.95;34.71;98181.44;5091785;28;20063;-62
2022/11/22 11:37:25;;;;;;;1999.90;999.90;;;;;;;18.16;34.44;98177.53;5092010;28;20078;-62
2022/11/22 11:39:52;;;;;;;526.75;275.52;;;;;;;18.11;35.07;98163.94;5091588;28;20056;-62
2022/11/22 11:42:30;;;;;;;1999.90;999.90;;;;;;;19.79;32.40;98152.00;5107327;28;20052;-60
2022/11/22 11:45:23;;;;;;;3.17;1.38;;;;;;;18.97;32.45;98157.09;5092013;28;20048;-62
2022/11/22 11:47:54;;;;;;;4.90;1.60;;;;;;;17.49;35.42;98160.22;5091831;28;20400;-62
2022/11/22 11:50:25;;;;;;;3.95;1.75;;;;;;;16.43;36.25;98160.63;5091765;28;20048;-60
2022/11/22 11:52:55;;;;;;;4.32;1.58;;;;;;;15.22;38.93;98168.22;5091875;28;20059;-61
2022/11/22 11:55:23;;;;;;;4.85;1.10;;;;;;;14.91;39.14;98167.03;5091467;28;20048;-61
2022/11/22 11:57:55;;;;;;;3.88;1.27;;;;;;;13.76;41.74;98189.91;5104837;27;20078;-61
2022/11/22 12:00:26;;;;;;;6.10;1.23;;;;;;;13.49;42.50;98180.19;5116052;28;20499;-60
2022/11/22 12:03:00;;;;;;;3.55;1.20;;;;;;;12.83;43.91;98168.88;5116123;28;20059;-61
2022/11/22 12:05:30;;;;;;;3.85;1.50;;;;;;;12.77;43.88;98182.41;5112656;28;20129;-61
2022/11/22 12:08:01;;;;;;;3.20;1.10;;;;;;;11.92;46.69;98180.31;5115983;28;20051;-61